createdAt,value
2023-02-01T00:03:33.675Z,5.00
2023-02-01T00:06:12.023Z,4.90
2023-02-01T00:08:39.171Z,4.90
2023-02-01T00:11:13.462Z,4.90
2023-02-01T00:13:51.593Z,5.00
2023-02-01T00:16:57.758Z,5.00
2023-02-01T00:19:25.176Z,4.90
2023-02-01T00:22:11.788Z,4.90
2023-02-01T00:24:53.580Z,4.90
2023-02-01T00:27:22.453Z,4.90
2023-02-01T00:29:58.064Z,4.90
2023-02-01T00:32:36.876Z,4.90
2023-02-01T00:35:10.034Z,4.90
2023-02-01T00:45:12.359Z,4.80
2023-02-01T00:48:05.563Z,4.80
2023-02-01T00:51:24.233Z,4.70
2023-02-01T00:54:07.219Z,4.70
2023-02-01T00:56:39.515Z,4.70
2023-02-01T00:59:12.769Z,4.70
2023-02-01T01:08:14.670Z,4.40
2023-02-01T01:14:18.511Z,4.60
2023-02-01T01:17:05.225Z,4.40
2023-02-01T01:19:46.054Z,4.60
2023-02-01T01:22:49.573Z,4.60
2023-02-01T01:29:59.661Z,4.50
2023-02-01T01:33:33.064Z,4.50
2023-02-01T01:36:22.969Z,4.50
2023-02-01T01:39:10.168Z,4.50
2023-02-01T01:45:31.954Z,4.60
2023-02-01T01:48:43.882Z,4.60
2023-02-01T01:51:35.906Z,4.60
2023-02-01T01:54:54.602Z,4.70
2023-02-01T01:57:52.898Z,4.60
2023-02-01T02:00:40.506Z,4.70
2023-02-01T02:03:46.374Z,4.70
2023-02-01T02:10:17.631Z,4.70
2023-02-01T02:13:09.829Z,4.60
2023-02-01T02:15:49.929Z,4.60
2023-02-01T02:19:37.542Z,4.60
2023-02-01T02:22:43.924Z,4.70
2023-02-01T02:26:10.085Z,4.60
2023-02-01T02:29:39.165Z,4.70
2023-02-01T02:37:07.796Z,4.80
2023-02-01T02:40:45.040Z,4.70
2023-02-01T02:43:57.361Z,4.70
2023-02-01T02:52:40.979Z,4.70
2023-02-01T03:00:31.641Z,4.80
2023-02-01T03:08:35.547Z,4.80
2023-02-01T03:11:15.590Z,4.80
2023-02-01T03:14:07.844Z,4.60
2023-02-01T03:16:55.564Z,4.70
2023-02-01T03:20:00.054Z,4.70
2023-02-01T03:22:49.580Z,4.80
2023-02-01T03:25:47.869Z,4.80
2023-02-01T03:29:23.543Z,4.90
2023-02-01T03:37:29.207Z,4.80
2023-02-01T03:45:39.649Z,4.90
2023-02-01T03:49:21.095Z,5.00
2023-02-01T03:52:19.103Z,4.90
2023-02-01T03:55:12.034Z,4.90
2023-02-01T03:59:01.954Z,5.00
2023-02-01T04:02:05.096Z,5.00
2023-02-01T04:04:51.615Z,5.10
2023-02-01T04:07:25.403Z,5.00
2023-02-01T04:10:13.812Z,5.10
2023-02-01T04:13:13.523Z,5.10
2023-02-01T04:16:31.083Z,5.10
2023-02-01T04:22:03.821Z,5.10
2023-02-01T04:24:53.625Z,5.10
2023-02-01T04:27:55.024Z,5.20
2023-02-01T04:31:27.093Z,5.20
2023-02-01T04:34:36.205Z,5.10
2023-02-01T04:48:25.397Z,5.20
2023-02-01T04:52:56.449Z,5.30
2023-02-01T04:58:57.036Z,5.40
2023-02-01T05:18:46.082Z,5.50
2023-02-01T05:22:00.959Z,5.40
2023-02-01T05:24:37.218Z,5.40
2023-02-01T05:27:21.911Z,5.50
2023-02-01T05:30:19.094Z,5.40
2023-02-01T05:32:56.538Z,5.40
2023-02-01T05:36:59.234Z,5.30
2023-02-01T05:43:08.866Z,5.40
2023-02-01T05:50:14.512Z,5.50
2023-02-01T05:53:46.939Z,5.50
2023-02-01T05:59:42.596Z,5.30
2023-02-01T06:10:37.661Z,5.30
2023-02-01T06:25:22.189Z,5.30
2023-02-01T06:28:26.250Z,5.30
2023-02-01T06:44:54.100Z,5.20
2023-02-01T07:14:29.576Z,5.30
2023-02-01T07:17:53.764Z,5.20
2023-02-01T07:21:27.920Z,5.20
2023-02-01T07:31:33.834Z,5.10
2023-02-01T07:45:45.382Z,5.30
2023-02-01T07:49:15.728Z,5.20
2023-02-01T07:52:12.127Z,4.80
2023-02-01T07:54:56.426Z,4.90
2023-02-01T07:57:57.991Z,4.90
2023-02-01T08:01:05.287Z,4.80
2023-02-01T08:03:41.934Z,4.50
2023-02-01T08:09:25.524Z,4.60
2023-02-01T08:11:58.402Z,4.50
2023-02-01T08:14:28.899Z,4.50
2023-02-01T08:16:58.367Z,4.70
2023-02-01T08:19:31.879Z,4.70
2023-02-01T08:22:00.388Z,4.50
2023-02-01T08:24:27.509Z,4.50
2023-02-01T08:26:54.640Z,4.40
2023-02-01T08:29:24.870Z,4.40
2023-02-01T08:31:52.100Z,4.30
2023-02-01T08:34:21.254Z,4.40
2023-02-01T08:36:48.359Z,4.70
2023-02-01T08:39:16.016Z,4.40
2023-02-01T08:42:03.130Z,4.40
2023-02-01T08:44:30.168Z,4.50
2023-02-01T08:46:57.549Z,4.40
2023-02-01T08:49:24.602Z,4.40
2023-02-01T08:51:51.735Z,4.40
2023-02-01T08:54:18.900Z,4.30
2023-02-01T08:56:46.257Z,4.40
2023-02-01T08:59:13.454Z,4.30
2023-02-01T09:01:40.791Z,4.30
2023-02-01T09:04:08.021Z,4.30
2023-02-01T09:06:34.965Z,4.30
2023-02-01T09:09:03.430Z,4.30
2023-02-01T09:11:30.495Z,4.30
2023-02-01T09:13:57.758Z,4.30
2023-02-01T09:16:24.945Z,4.40
2023-02-01T09:18:56.769Z,4.40
2023-02-01T09:21:35.903Z,4.40
2023-02-01T09:24:05.054Z,4.50
2023-02-01T09:26:33.360Z,4.60
2023-02-01T09:29:07.384Z,4.40
2023-02-01T09:31:36.147Z,4.50
2023-02-01T09:34:12.552Z,4.50
2023-02-01T09:36:44.109Z,4.50
2023-02-01T09:39:13.125Z,4.50
2023-02-01T09:42:51.117Z,4.40
2023-02-01T09:45:48.171Z,4.40
2023-02-01T09:48:35.203Z,4.50
2023-02-01T09:51:31.067Z,4.60
2023-02-01T09:54:38.199Z,4.50
2023-02-01T09:57:46.926Z,4.80
2023-02-01T10:00:28.802Z,4.70
2023-02-01T10:03:09.171Z,4.50
2023-02-01T10:06:21.568Z,4.50
2023-02-01T10:09:50.354Z,4.60
2023-02-01T10:13:13.446Z,4.50
2023-02-01T10:16:29.560Z,4.50
2023-02-01T10:19:54.638Z,4.60
2023-02-01T10:23:19.092Z,4.50
2023-02-01T10:26:21.803Z,4.60
2023-02-01T10:29:08.369Z,4.80
2023-02-01T10:31:54.522Z,4.70
2023-02-01T10:34:32.950Z,4.80
2023-02-01T10:37:38.587Z,4.90
2023-02-01T10:40:27.443Z,4.80
2023-02-01T10:43:03.561Z,4.80
2023-02-01T10:45:54.863Z,4.50
2023-02-01T10:48:24.314Z,4.50
2023-02-01T10:52:14.445Z,4.50
2023-02-01T10:55:34.777Z,4.50
2023-02-01T10:58:27.190Z,4.60
2023-02-01T11:01:43.357Z,4.70
2023-02-01T11:04:35.639Z,4.60
2023-02-01T11:07:48.728Z,4.80
2023-02-01T11:11:03.532Z,4.70
2023-02-01T11:14:22.321Z,4.90
2023-02-01T11:16:56.231Z,4.80
2023-02-01T11:19:28.351Z,4.90
2023-02-01T11:22:02.116Z,5.00
2023-02-01T11:24:39.399Z,5.10
2023-02-01T11:27:27.124Z,5.10
2023-02-01T11:33:11.941Z,5.30
2023-02-01T11:35:55.783Z,5.50
2023-02-01T11:39:31.992Z,5.50
2023-02-01T11:42:27.837Z,5.70
2023-02-01T11:46:18.954Z,5.60
2023-02-01T11:48:55.113Z,5.70
2023-02-01T11:52:09.410Z,6.00
2023-02-01T11:55:29.310Z,5.90
2023-02-01T11:59:56.380Z,6.00
2023-02-01T12:03:33.732Z,6.00
2023-02-01T12:06:57.981Z,6.60
2023-02-01T12:10:20.248Z,6.50
2023-02-01T12:14:27.617Z,6.40
2023-02-01T12:18:28.930Z,6.30
2023-02-01T12:21:29.744Z,6.20
2023-02-01T12:33:21.360Z,6.30
2023-02-01T12:41:27.773Z,6.20
2023-02-01T12:57:13.502Z,6.30
2023-02-01T13:05:07.151Z,6.40
2023-02-01T13:15:15.572Z,6.40
2023-02-01T13:17:55.752Z,6.30
2023-02-01T13:21:28.198Z,6.30
2023-02-01T13:27:41.927Z,6.30
2023-02-01T13:31:50.089Z,6.30
2023-02-01T13:36:28.156Z,6.30
2023-02-01T14:00:47.226Z,6.60
2023-02-01T14:15:11.810Z,6.40
2023-02-01T15:04:50.853Z,6.40
2023-02-01T15:12:34.416Z,5.90
2023-02-01T15:16:04.580Z,5.60
2023-02-01T15:18:51.917Z,5.40
2023-02-01T15:21:33.961Z,5.30
2023-02-01T15:25:02.027Z,5.20
2023-02-01T15:27:35.271Z,5.00
2023-02-01T15:30:34.148Z,4.80
2023-02-01T15:33:20.194Z,4.80
2023-02-01T15:36:21.477Z,4.50
2023-02-01T15:38:52.704Z,4.60
2023-02-01T15:41:34.039Z,4.30
2023-02-01T15:44:05.421Z,4.30
2023-02-01T15:46:45.119Z,4.30
2023-02-01T15:49:29.891Z,4.20
2023-02-01T15:52:55.974Z,4.20
2023-02-01T15:55:44.035Z,4.20
2023-02-01T15:58:27.989Z,4.00
2023-02-01T16:01:14.624Z,3.80
2023-02-01T16:03:49.648Z,3.70
2023-02-01T16:06:23.104Z,3.30
2023-02-01T16:09:28.259Z,3.40
2023-02-01T16:12:02.519Z,3.20
2023-02-01T16:14:30.263Z,3.10
2023-02-01T16:17:00.166Z,2.90
2023-02-01T16:19:29.526Z,2.90
2023-02-01T16:22:00.905Z,2.90
2023-02-01T16:24:32.704Z,2.90
2023-02-01T16:27:11.250Z,3.00
2023-02-01T16:29:46.704Z,3.10
2023-02-01T16:32:31.010Z,3.00
2023-02-01T16:35:02.066Z,3.10
2023-02-01T16:37:37.601Z,3.10
2023-02-01T16:40:34.671Z,3.20
2023-02-01T16:43:03.888Z,3.20
2023-02-01T16:45:38.909Z,3.30
2023-02-01T16:48:09.122Z,3.20
2023-02-01T16:50:41.418Z,3.20
2023-02-01T16:53:18.729Z,3.30
2023-02-01T16:58:57.312Z,3.30
2023-02-01T17:01:49.475Z,3.30
2023-02-01T17:04:30.687Z,3.30
2023-02-01T17:07:08.702Z,3.30
2023-02-01T17:09:42.636Z,3.40
2023-02-01T17:12:32.811Z,3.40
2023-02-01T17:15:05.058Z,3.50
2023-02-01T17:17:45.478Z,3.60
2023-02-01T17:23:19.559Z,3.50
2023-02-01T17:25:54.789Z,3.50
2023-02-01T17:28:21.995Z,3.70
2023-02-01T17:30:49.895Z,3.70
2023-02-01T17:33:57.126Z,3.70
2023-02-01T17:36:38.433Z,3.80
2023-02-01T17:40:00.341Z,3.90
2023-02-01T17:46:44.315Z,4.10
2023-02-01T17:49:21.131Z,4.00
2023-02-01T17:52:31.503Z,3.90
2023-02-01T17:55:23.598Z,4.00
2023-02-01T17:58:02.312Z,3.90
2023-02-01T18:16:13.216Z,3.90
2023-02-01T18:19:19.493Z,4.00
2023-02-01T18:22:28.213Z,4.20
2023-02-01T18:25:43.309Z,4.40
2023-02-01T18:28:43.138Z,4.30
2023-02-01T18:32:11.528Z,4.30
2023-02-01T18:35:51.042Z,4.30
2023-02-01T18:38:38.847Z,4.30
2023-02-01T18:44:38.749Z,4.20
2023-02-01T18:47:29.040Z,4.40
2023-02-01T18:50:23.009Z,4.30
2023-02-01T18:53:27.775Z,4.40
2023-02-01T19:00:21.034Z,4.30
2023-02-01T19:03:44.776Z,4.40
2023-02-01T19:07:37.427Z,4.40
2023-02-01T19:14:20.556Z,4.80
2023-02-01T19:16:52.632Z,4.40
2023-02-01T19:19:31.625Z,4.40
2023-02-01T19:22:04.787Z,4.40
2023-02-01T19:26:46.131Z,4.40
2023-02-01T19:30:11.683Z,4.30
2023-02-01T19:39:07.002Z,4.40
2023-02-01T19:45:33.019Z,4.50
2023-02-01T19:50:59.555Z,5.10
2023-02-01T19:53:37.746Z,4.80
2023-02-01T19:57:00.562Z,4.60
2023-02-01T19:59:28.106Z,4.60
2023-02-01T20:12:40.734Z,4.50
2023-02-01T20:16:16.254Z,4.50
2023-02-01T20:22:09.986Z,4.40
2023-02-01T20:25:13.584Z,4.40
2023-02-01T20:36:09.742Z,4.30
2023-02-01T20:38:52.197Z,4.20
2023-02-01T20:42:14.714Z,4.30
2023-02-01T20:45:28.024Z,4.30
2023-02-01T20:51:18.403Z,4.10
2023-02-01T20:57:35.930Z,4.10
2023-02-01T21:00:15.174Z,4.20
2023-02-01T21:03:14.477Z,4.20
2023-02-01T21:09:32.206Z,4.10
2023-02-01T21:12:05.629Z,4.00
2023-02-01T21:15:46.200Z,4.00
2023-02-01T21:25:54.465Z,4.00
2023-02-01T21:29:30.738Z,4.00
2023-02-01T21:32:14.557Z,3.90
2023-02-01T21:35:10.671Z,3.80
2023-02-01T21:38:12.509Z,3.90
2023-02-01T21:45:31.294Z,3.80
2023-02-01T21:49:04.098Z,3.80
2023-02-01T21:51:33.800Z,3.80
2023-02-01T21:58:02.283Z,3.90
2023-02-01T22:01:14.424Z,3.70
2023-02-01T22:04:15.040Z,4.00
2023-02-01T22:07:20.563Z,3.90
2023-02-01T22:10:36.956Z,4.00
2023-02-01T22:13:09.954Z,3.90
2023-02-01T22:15:44.780Z,4.00
2023-02-01T22:18:38.352Z,4.00
2023-02-01T22:21:27.526Z,4.00
2023-02-01T22:24:34.022Z,4.00
2023-02-01T22:36:42.346Z,4.00
2023-02-01T22:39:47.740Z,4.10
2023-02-01T22:43:07.363Z,4.10
2023-02-01T22:45:46.919Z,4.20
2023-02-01T22:49:47.144Z,4.20
2023-02-01T22:52:53.678Z,4.10
2023-02-01T22:56:17.211Z,4.00
2023-02-01T22:59:04.860Z,4.10
2023-02-01T23:05:13.549Z,4.20
2023-02-01T23:07:48.187Z,4.10
2023-02-01T23:10:34.513Z,4.10
2023-02-01T23:17:13.872Z,4.10
2023-02-01T23:19:16.646Z,4.10
2023-02-01T23:21:54.258Z,4.20
2023-02-01T23:24:40.335Z,4.30
2023-02-01T23:27:54.755Z,4.20
2023-02-01T23:30:47.814Z,4.30
2023-02-01T23:36:18.160Z,4.20
2023-02-01T23:40:38.553Z,4.40
2023-02-01T23:44:00.926Z,4.40
2023-02-01T23:50:10.543Z,4.50
